Flight Track Log - Related Links

Times and Time Zones

All times are in EDT time to prevent confusion due to time zone crossing. See the UAL118 flight status page for this flight to view local times or setup timezone preferences in your user account.

Time Position Orientation Groundspeed Altitude Reporting Facility
EDT Latitude Longitude Course Direction KTS MPH feet Rate Location/Type
Mon 02:51:25 AM 50.0300 8.5120 250° West 182 209 1,700  Level FlightAware ADS-B
Mon 02:51:40 AM 50.0250 8.4940 247° West 186 214 2,300 2,200 Climbing FlightAware ADS-B
Mon 02:51:55 AM 50.0140 8.4820 215° Southwest 189 217 2,800 2,160 Climbing FlightAware ADS-B
Mon 02:52:05 AM 50.0060 8.4790 194° South 191 220 3,200 1,920 Climbing FlightAware ADS-B
Mon 02:52:20 AM 49.9940 8.4780 183° South 193 222 3,600 1,333 Climbing FlightAware ADS-B
Mon 02:52:50 AM 49.9660 8.4670 194° South 231 266 4,200 1,333 Climbing FlightAware ADS-B
Mon 02:53:05 AM 49.9480 8.4570 200° South 244 281 4,600 1,800 Climbing FlightAware ADS-B
Mon 02:53:30 AM 49.9230 8.4330 212° Southwest 266 306 5,400 2,486 Climbing FlightAware ADS-B
Mon 02:54:15 AM 49.8850 8.3750 225° Southwest 270 311 7,500 2,743 Climbing FlightAware ADS-B
Mon 02:54:40 AM 49.8630 8.3420 224° Southwest 272 313 8,600 2,657 Climbing FlightAware ADS-B
Mon 02:55:25 AM 49.8280 8.2700 233° Southwest 282 325 10,600 1,976 Climbing FlightAware ADS-B
Mon 02:56:05 AM 49.8220 8.1830 264° West 326 375 11,400 1,765 Climbing FlightAware ADS-B
Mon 02:56:50 AM 49.8150 8.0750 264° West 342 394 13,100 2,259 Climbing FlightAware ADS-B
Mon 02:57:30 AM 49.8090 7.9780 265° West 350 403 14,600 2,325 Climbing FlightAware ADS-B
Mon 02:58:10 AM 49.8020 7.8750 264° West 360 414 16,200 2,259 Climbing FlightAware ADS-B
Mon 02:58:55 AM 49.7950 7.7610 265° West 368 423 17,800 2,047 Climbing FlightAware ADS-B
Mon 02:59:35 AM 49.7870 7.6530 263° West 376 433 19,100 1,463 Climbing FlightAware ADS-B
Mon 03:00:17 AM 49.7800 7.5400 265° West 380 437 19,800 1,976 Climbing FlightAware ADS-B
Mon 03:00:57 AM 49.7720 7.4320 263° West 386 444 21,800 2,329 Climbing FlightAware ADS-B
Mon 03:01:42 AM 49.7630 7.3050 264° West 393 452 23,100 1,667 Climbing FlightAware ADS-B
Mon 03:02:27 AM 49.7550 7.1780 264° West 401 461 24,300 1,553 Climbing FlightAware ADS-B
Mon 03:03:07 AM 49.7460 7.0640 263° West 408 470 25,300 1,425 Climbing FlightAware ADS-B
Mon 03:03:47 AM 49.7380 6.9470 264° West 416 479 26,200 1,482 Climbing FlightAware ADS-B
Mon 03:04:32 AM 49.7280 6.8130 263° West 420 483 27,400 1,412 Climbing FlightAware ADS-B
Mon 03:05:12 AM 49.7190 6.6940 263° West 426 490 28,200 1,200 Climbing FlightAware ADS-B
Mon 03:05:52 AM 49.7090 6.5700 263° West 432 497 29,000 1,200 Climbing FlightAware ADS-B
Mon 03:06:37 AM 49.6990 6.4320 264° West 438 504 29,900 1,200 Climbing FlightAware ADS-B
Mon 03:07:12 AM 49.6900 6.3230 263° West 440 506 30,600 1,050 Climbing FlightAware ADS-B
Mon 03:07:57 AM 49.6790 6.1820 263° West 446 513 31,300 1,133 Climbing FlightAware ADS-B
Mon 03:08:42 AM 49.6670 6.0400 263° West 444 511 32,300 1,129 Climbing FlightAware ADS-B
Mon 03:09:22 AM 49.6570 5.9140 263° West 448 516 32,900 1,059 Climbing FlightAware ADS-B
Mon 03:10:07 AM 49.6450 5.7730 263° West 446 513 33,800 1,125 Climbing FlightAware ADS-B
Mon 03:10:42 AM 49.6360 5.6620 263° West 444 511 34,400 900 Climbing FlightAware ADS-B
Mon 03:11:27 AM 49.6240 5.5200 263° West 445 512 35,000 400 Climbing FlightAware ADS-B
Mon 03:12:12 AM 49.6110 5.3750 262° West 449 517 35,000  Level FlightAware ADS-B
Mon 03:12:57 AM 49.5990 5.2450 262° West 453 521 35,000  Level FlightAware ADS-B
Mon 03:13:37 AM 49.5790 5.1090 257° West 462 532 35,000  Level FlightAware ADS-B
Mon 03:14:17 AM 49.5560 4.9770 255° West 460 529 35,000 -141 Level FlightAware ADS-B
Mon 03:15:02 AM 49.5300 4.8330 255° West 459 528 34,800 -706 Descending FlightAware ADS-B
Mon 03:15:42 AM 49.5100 4.7220 255° West 459 528 34,000 -565 Descending FlightAware ADS-B
Mon 03:16:27 AM 49.4840 4.5810 254° West 453 521 34,000  Level FlightAware ADS-B
Mon 03:17:07 AM 49.4610 4.4490 255° West 457 526 34,000  Level FlightAware ADS-B
Mon 03:17:47 AM 49.4350 4.3080 254° West 463 533 34,000  Level FlightAware ADS-B
Mon 03:18:32 AM 49.4090 4.1690 254° West 467 537 34,000 -1,364 Level FlightAware ADS-B
Mon 03:18:53 AM 49.3931 4.1149 254° West 1 1 32,500  Descending FlightAware UK
Mon 03:19:12 AM 49.3850 4.0420 254° West 470 541 34,000 1,406 Climbing FlightAware ADS-B
Mon 03:19:57 AM 49.3570 3.8920 254° West 472 543 34,000 494 Level FlightAware ADS-B
Mon 03:20:37 AM 49.3330 3.7660 254° West 466 536 34,700 750 Climbing FlightAware ADS-B
Mon 03:21:17 AM 49.3090 3.6400 254° West 473 544 35,000 -1,125 Climbing FlightAware ADS-B
Mon 03:21:41 AM 49.2886 3.5685 254° West 1 1 33,500  Descending FlightAware UK
Mon 03:22:02 AM 49.2820 3.4990 254° West 475 547 35,000  Climbing FlightAware ADS-B
Mon 03:22:17 AM 49.2659 3.4513 254° West 1 1 33,500  Descending FlightAware UK
Mon 03:22:37 AM 49.2600 3.3880 254° West 475 547 35,000  Climbing FlightAware ADS-B
Mon 03:22:59 AM 49.2392 3.3148 254° West 1 1 33,500 -2,250 Descending FlightAware UK
Mon 03:23:17 AM 49.2279 3.2573 253° West 1 1 33,500 3,214 Level FlightAware UK
Mon 03:23:27 AM 49.2290 3.2270 253° West 473 544 35,000  Climbing FlightAware ADS-B
Mon 03:23:59 AM 49.2014 3.1219 253° West 1 1 33,500  Descending FlightAware UK
Mon 03:24:07 AM 49.2050 3.1030 253° West 470 541 35,000  Climbing FlightAware ADS-B
Mon 03:24:23 AM 49.1871 3.0455 253° West 1 1 33,500 -2,647 Descending FlightAware UK
Mon 03:24:41 AM 49.1805 2.9886 260° West 1 1 33,500 4,737 Level FlightAware UK
Mon 03:24:42 AM 49.1880 2.9830 260° West 453 521 35,000  Climbing FlightAware ADS-B
Mon 03:24:59 AM 49.1778 2.9318 260° West 1 1 33,500  Descending FlightAware UK
Mon 03:25:09 AM 49.1825 2.8935 260° West 443 510 35,000  Climbing FlightAware ADS-B
Mon 03:25:29 AM 49.1755 2.8421 260° West 1 1 33,500  Descending FlightAware UK
Mon 03:25:40 AM 49.1820 2.7989 260° West 431 496 35,000  Climbing FlightAware ADS-B
Mon 03:25:59 AM 49.1781 2.7513 260° West 1 1 33,500  Descending FlightAware UK
Mon 03:26:12 AM 49.1850 2.7100 260° West 432 497 35,000 5,294 Climbing FlightAware ADS-B
Mon 03:26:16 AM 49.1851 2.6890 270° West 432 497 35,000 -2,571 Level FlightAware ADS-B
Mon 03:26:47 AM 49.1818 2.6018 270° West 1 1 33,500  Descending FlightAware UK
Mon 03:26:52 AM 49.1870 2.5890 270° West 432 497 35,000  Climbing FlightAware ADS-B
Mon 03:27:17 AM 49.1840 2.5117 270° West 1 1 33,500  Descending FlightAware UK
Mon 03:27:37 AM 49.1910 2.4490 270° West 430 495 35,000  Climbing FlightAware ADS-B
Mon 03:27:53 AM 49.1872 2.4034 270° West 1 1 33,500 -2,647 Descending FlightAware UK
Mon 03:28:11 AM 49.1889 2.3488 273° West 1 1 33,500 3,750 Level FlightAware UK
Mon 03:28:17 AM 49.1950 2.3370 273° West 430 495 35,000  Climbing FlightAware ADS-B
Mon 03:28:34 AM 49.1911 2.2773 273° West 448 516 33,500  Descending FlightAware UK
Mon 03:29:02 AM 49.1990 2.1970 273° West 431 496 35,000  Climbing FlightAware ADS-B
Mon 03:29:22 AM 49.1952 2.1307 273° West 450 518 33,500  Descending FlightAware UK
Mon 03:29:42 AM 49.2020 2.0730 273° West 431 496 35,000  Climbing FlightAware ADS-B
Mon 03:29:58 AM 49.1978 2.0217 273° West 452 520 33,500  Descending FlightAware UK
Mon 03:30:19 AM 49.2047 1.9518 273° West 431 496 35,000  Climbing FlightAware ADS-B
Mon 03:30:34 AM 49.2003 1.9113 273° West 452 520 33,500 -2,727 Descending FlightAware UK
Mon 03:30:52 AM 49.2015 1.8570 272° West 452 520 33,500 2,727 Level FlightAware UK
Mon 03:31:07 AM 49.2080 1.8150 272° West 432 497 35,000  Climbing FlightAware ADS-B
Mon 03:31:22 AM 49.2036 1.7653 272° West 454 522 33,500  Descending FlightAware UK
Mon 03:31:47 AM 49.2110 1.6900 272° West 433 498 35,000  Climbing FlightAware ADS-B
Mon 03:32:10 AM 49.2065 1.6180 272° West 454 522 33,500  Descending FlightAware UK
Mon 03:32:32 AM 49.2130 1.5630 272° West 432 497 35,000  Climbing FlightAware ADS-B
Mon 03:32:58 AM 49.2092 1.4714 272° West 454 522 33,500  Descending FlightAware UK
Mon 03:33:12 AM 49.2160 1.4420 272° West 433 498 35,000  Climbing FlightAware ADS-B
Mon 03:33:28 AM 49.2110 1.3789 272° West 454 522 33,500  Descending FlightAware UK
Mon 03:33:52 AM 49.2180 1.3160 272° West 433 498 35,000  Climbing FlightAware ADS-B
Mon 03:34:10 AM 49.2130 1.2511 272° West 456 525 33,500  Descending FlightAware UK
Mon 03:34:37 AM 49.2210 1.1710 272° West 432 497 35,000  Climbing FlightAware ADS-B
Mon 03:34:52 AM 49.2148 1.1229 272° West 456 525 33,500 -2,727 Descending FlightAware UK
Mon 03:35:10 AM 49.2157 1.0677 271° West 456 525 33,500 3,600 Level FlightAware UK
Mon 03:35:17 AM 49.2230 1.0490 271° West 432 497 35,000  Climbing FlightAware ADS-B
Mon 03:35:34 AM 49.2168 0.9943 271° West 454 522 33,500 -2,571 Descending FlightAware UK
Mon 03:35:52 AM 49.2176 0.9393 271° West 454 522 33,500 3,214 Level FlightAware UK
Mon 03:36:02 AM 49.2250 0.9160 271° West 431 496 35,000  Climbing FlightAware ADS-B
Mon 03:36:22 AM 49.2188 0.8484 271° West 454 522 33,500 -2,368 Descending FlightAware UK
Mon 03:36:40 AM 49.2196 0.7935 271° West 454 522 33,500 4,500 Level FlightAware UK
Mon 03:36:42 AM 49.2270 0.7940 271° West 431 496 35,000  Climbing FlightAware ADS-B
Mon 03:36:58 AM 49.2202 0.7385 271° West 454 522 33,500 -2,647 Descending FlightAware UK
Mon 03:37:16 AM 49.2208 0.6835 271° West 452 520 33,500 3,103 Level FlightAware UK
Mon 03:37:27 AM 49.2290 0.6520 271° West 432 497 35,000  Climbing FlightAware ADS-B
Mon 03:37:52 AM 49.2221 0.5734 271° West 452 520 33,500  Descending FlightAware UK
Mon 03:38:07 AM 49.2300 0.5300 271° West 432 497 35,000  Climbing FlightAware ADS-B
Mon 03:38:22 AM 49.2231 0.4816 271° West 454 522 33,500 -2,727 Descending FlightAware UK
Mon 03:38:40 AM 49.2238 0.4265 271° West 456 525 33,500 3,600 Level FlightAware UK
Mon 03:38:47 AM 49.2310 0.4150 271° West 432 497 35,000  Climbing FlightAware ADS-B
Mon 03:39:03 AM 49.2245 0.3536 271° West 456 525 33,500  Descending FlightAware UK
Mon 03:39:32 AM 49.2330 0.2770 271° West 432 497 35,000  Climbing FlightAware ADS-B
Mon 03:39:57 AM 49.2258 0.1883 271° West 458 527 33,500  Descending FlightAware UK
Mon 03:40:12 AM 49.2340 0.1530 271° West 431 496 35,000  Climbing FlightAware ADS-B
Mon 03:40:33 AM 49.2265 0.0789 271° West 458 527 33,500 -2,308 Descending FlightAware UK
Mon 03:40:51 AM 49.2268 0.0240 271° West 460 529 33,500 4,737 Level FlightAware UK
Mon 03:40:52 AM 49.2350 0.0400 271° West 431 496 35,000  Climbing FlightAware ADS-B
Mon 03:41:09 AM 49.2271 -0.0303 271° West 460 529 33,500  Descending FlightAware UK
Mon 03:41:37 AM 49.2360 -0.1050 271° West 430 495 35,000  Climbing FlightAware ADS-B
Mon 03:41:57 AM 49.2279 -0.1765 271° West 460 529 33,500  Descending FlightAware UK
Mon 03:42:07 AM 49.2360 -0.1980 271° West 430 495 35,000  Climbing FlightAware ADS-B
Mon 03:42:15 AM 49.2283 -0.2314 271° West 458 527 33,500 -4,500 Descending FlightAware UK
Mon 03:42:27 AM 49.2285 -0.2679 271° West 458 527 33,500  Level FlightAware UK
Mon 03:42:45 AM 49.2286 -0.3221 270° West 458 527 33,500 3,000 Level FlightAware UK
Mon 03:42:57 AM 49.2370 -0.3500 270° West 430 495 35,000  Climbing FlightAware ADS-B
Mon 03:43:15 AM 49.2288 -0.4134 270° West 456 525 33,500  Descending FlightAware UK
Mon 03:43:32 AM 49.2370 -0.4520 270° West 430 495 35,000  Climbing FlightAware ADS-B
Mon 03:44:03 AM 49.2291 -0.5594 270° West 456 525 33,500  Descending FlightAware UK
Mon 03:44:27 AM 49.2380 -0.6230 270° West 429 494 35,000  Climbing FlightAware ADS-B
Mon 03:44:45 AM 49.2292 -0.6866 270° West 456 525 33,500  Descending FlightAware UK
Mon 03:45:02 AM 49.2380 -0.7230 270° West 429 494 35,000  Climbing FlightAware ADS-B
Mon 03:45:33 AM 49.2293 -0.8325 270° West 454 522 33,500  Descending FlightAware UK
Mon 03:45:47 AM 49.2380 -0.8620 270° West 428 493 35,000  Climbing FlightAware ADS-B
Mon 03:46:14 AM 49.2290 -0.9591 270° West 454 522 33,500  Descending FlightAware UK
Mon 03:46:32 AM 49.2380 -0.9910 270° West 427 491 35,000  Climbing FlightAware ADS-B
Mon 03:46:56 AM 49.2288 -1.0861 270° West 454 522 33,500  Descending FlightAware UK
Mon 03:47:12 AM 49.2380 -1.1100 270° West 427 491 35,000  Climbing FlightAware ADS-B
Mon 03:47:32 AM 49.2284 -1.1950 270° West 452 520 33,500  Descending FlightAware UK
Mon 03:47:52 AM 49.2370 -1.2290 270° West 427 491 35,000  Climbing FlightAware ADS-B
Mon 03:48:08 AM 49.2281 -1.3037 270° West 452 520 33,500  Descending FlightAware UK
Mon 03:48:27 AM 49.2370 -1.3400 270° West 427 491 35,000  Climbing FlightAware ADS-B
Mon 03:49:02 AM 49.2274 -1.4660 270° West 452 520 33,500  Descending FlightAware UK
Mon 03:49:17 AM 49.2360 -1.4920 270° West 427 491 35,000  Climbing FlightAware ADS-B
Mon 03:49:38 AM 49.2265 -1.5738 270° West 450 518 33,500 -2,308 Descending FlightAware UK
Mon 03:49:56 AM 49.2262 -1.6288 269° West 450 518 33,500 3,750 Level FlightAware UK
Mon 03:50:02 AM 49.2350 -1.6300 269° West 427 491 35,000  Climbing FlightAware ADS-B
Mon 03:50:20 AM 49.2256 -1.7000 269° West 450 518 33,500  Descending FlightAware UK
Mon 03:50:37 AM 49.2340 -1.7280 269° West 428 493 35,000  Climbing FlightAware ADS-B
Mon 03:50:38 AM 49.2251 -1.7549 269° West 450 518 33,500 -3,600 Descending FlightAware UK
Mon 03:51:02 AM 49.2245 -1.8274 269° West 450 518 33,500 1,837 Level FlightAware UK
Mon 03:51:27 AM 49.2330 -1.8820 269° West 429 494 35,000  Climbing FlightAware ADS-B
Mon 03:51:50 AM 49.2231 -1.9723 269° West 450 518 33,500 -2,195 Descending FlightAware UK
Mon 03:52:08 AM 49.2225 -2.0270 269° West 450 518 33,500 4,091 Level FlightAware UK
Mon 03:52:12 AM 49.2320 -2.0230 269° West 430 495 35,000  Climbing FlightAware ADS-B
Mon 03:52:32 AM 49.2211 -2.0998 269° West 452 520 33,500  Descending FlightAware UK
Mon 03:52:52 AM 49.2300 -2.1450 269° West 430 495 35,000  Climbing FlightAware ADS-B
Mon 03:53:08 AM 49.2199 -2.2100 269° West 452 520 33,500 -2,647 Descending FlightAware UK
Mon 03:53:26 AM 49.2196 -2.2654 270° West 450 518 33,500  Level FlightAware UK
Mon 03:53:44 AM 49.2191 -2.3204 269° West 452 520 33,500  Level FlightAware UK
Mon 03:54:02 AM 49.2180 -2.3753 268° West 452 520 33,500 3,214 Level FlightAware UK
Mon 03:54:12 AM 49.2270 -2.3790 268° West 432 497 35,000  Climbing FlightAware ADS-B
Mon 03:54:31 AM 49.2167 -2.4662 268° West 450 518 33,500 -2,432 Descending FlightAware UK
Mon 03:54:49 AM 49.2159 -2.5210 269° West 452 520 33,500 3,462 Level FlightAware UK
Mon 03:54:57 AM 49.2250 -2.5110 269° West 433 498 35,000  Climbing FlightAware ADS-B
Mon 03:55:13 AM 49.2146 -2.5942 269° West 452 520 33,500 -2,647 Descending FlightAware UK
Mon 03:55:31 AM 49.2133 -2.6492 268° West 452 520 33,500 3,750 Level FlightAware UK
Mon 03:55:37 AM 49.2240 -2.6380 268° West 434 499 35,000  Climbing FlightAware ADS-B
Mon 03:56:01 AM 49.2118 -2.7404 268° West 452 520 33,500  Descending FlightAware UK
Mon 03:56:17 AM 49.2220 -2.7580 268° West 434 499 35,000  Climbing FlightAware ADS-B
Mon 03:56:49 AM 49.2094 -2.8877 268° West 454 522 33,500  Descending FlightAware UK
Mon 03:57:02 AM 49.2190 -2.8970 268° West 435 501 35,000  Climbing FlightAware ADS-B
Mon 03:57:37 AM 49.2067 -3.0346 268° West 452 520 33,500  Descending FlightAware UK
Mon 03:57:42 AM 49.2170 -3.0200 268° West 436 502 35,000  Climbing FlightAware ADS-B
Mon 03:58:01 AM 49.2052 -3.1084 268° West 454 522 33,500 -2,432 Descending FlightAware UK
Mon 03:58:19 AM 49.2040 -3.1636 268° West 454 522 33,500 3,462 Level FlightAware UK
Mon 03:58:27 AM 49.2140 -3.1590 268° West 437 503 35,000  Climbing FlightAware ADS-B
Mon 03:58:55 AM 49.2015 -3.2744 268° West 454 522 33,500  Descending FlightAware UK
Mon 03:59:07 AM 49.2110 -3.2830 268° West 437 503 35,000  Climbing FlightAware ADS-B
Mon 03:59:31 AM 49.1992 -3.3853 268° West 456 525 33,500  Descending FlightAware UK
Mon 03:59:47 AM 49.2090 -3.4060 268° West 437 503 35,000  Climbing FlightAware ADS-B
Mon 04:00:07 AM 49.1964 -3.4953 268° West 458 527 33,500 -2,368 Descending FlightAware UK
Mon 04:00:25 AM 49.1951 -3.5506 268° West 458 527 33,500 3,600 Level FlightAware UK
Mon 04:00:32 AM 49.2060 -3.5440 268° West 435 501 35,000  Climbing FlightAware ADS-B
Mon 04:00:49 AM 49.1933 -3.6242 268° West 458 527 33,500 -2,571 Descending FlightAware UK
Mon 04:01:07 AM 49.1919 -3.6793 268° West 456 525 33,500 3,913 Level FlightAware UK
Mon 04:01:12 AM 49.2030 -3.6640 268° West 435 501 35,000  Climbing FlightAware ADS-B
Mon 04:01:31 AM 49.1900 -3.7525 268° West 456 525 33,500 -2,432 Descending FlightAware UK
Mon 04:01:49 AM 49.1885 -3.8075 268° West 456 525 33,500 3,462 Level FlightAware UK
Mon 04:01:57 AM 49.1990 -3.8000 268° West 434 499 35,000  Climbing FlightAware ADS-B
Mon 04:02:13 AM 49.1868 -3.8802 268° West 454 522 33,500 -2,647 Descending FlightAware UK
Mon 04:02:31 AM 49.1853 -3.9350 268° West 452 520 33,500 3,750 Level FlightAware UK
Mon 04:02:37 AM 49.1960 -3.9260 268° West 434 499 35,000  Climbing FlightAware ADS-B
Mon 04:02:55 AM 49.1832 -4.0082 268° West 452 520 33,500 -2,500 Descending FlightAware UK
Mon 04:03:13 AM 49.1815 -4.0630 267° West 452 520 33,500 4,091 Level FlightAware UK
Mon 04:03:17 AM 49.1920 -4.0480 267° West 434 499 35,000  Climbing FlightAware ADS-B
Mon 04:03:37 AM 49.1793 -4.1362 267° West 452 520 33,500 -2,368 Descending FlightAware UK
Mon 04:03:55 AM 49.1776 -4.1911 267° West 454 522 33,500 4,500 Level FlightAware UK
Mon 04:03:57 AM 49.1890 -4.1710 267° West 434 499 35,000  Climbing FlightAware ADS-B
Mon 04:04:30 AM 49.1743 -4.3003 267° West 454 522 33,500  Descending FlightAware UK
Mon 04:04:42 AM 49.1850 -4.3050 267° West 435 501 35,000  Climbing FlightAware ADS-B
Mon 04:05:06 AM 49.1711 -4.4103 267° West 454 522 33,500  Descending FlightAware UK
Mon 04:05:27 AM 49.1800 -4.4470 267° West 437 503 35,000  Climbing FlightAware ADS-B
Mon 04:05:48 AM 49.1668 -4.5389 267° West 456 525 33,500  Descending FlightAware UK
Mon 04:06:07 AM 49.1760 -4.5690 267° West 437 503 35,000  Climbing FlightAware ADS-B
Mon 04:06:24 AM 49.1631 -4.6494 267° West 454 522 33,500 -2,571 Descending FlightAware UK
Mon 04:06:42 AM 49.1612 -4.7047 267° West 454 522 33,500 3,913 Level FlightAware UK
Mon 04:06:47 AM 49.1720 -4.6860 267° West 438 504 35,000  Climbing FlightAware ADS-B
Mon 04:07:06 AM 49.1586 -4.7784 267° West 454 522 33,500 -2,432 Descending FlightAware UK
Mon 04:07:24 AM 49.1566 -4.8337 267° West 456 525 33,500 4,286 Level FlightAware UK
Mon 04:07:27 AM 49.1680 -4.8160 267° West 438 504 35,000  Climbing FlightAware ADS-B
Mon 04:07:54 AM 49.1534 -4.9258 267° West 456 525 33,500  Descending FlightAware UK
Mon 04:08:12 AM 49.1630 -4.9560 267° West 438 504 35,000  Climbing FlightAware ADS-B
Mon 04:08:36 AM 49.1486 -5.0541 267° West 454 522 33,500  Descending FlightAware UK
Mon 04:08:57 AM 49.1580 -5.0950 267° West 438 504 35,000  Climbing FlightAware ADS-B
Mon 04:09:12 AM 49.1443 -5.1645 267° West 458 527 33,500 -2,727 Descending FlightAware UK
Mon 04:09:30 AM 49.1421 -5.2199 267° West 456 525 33,500 3,600 Level FlightAware UK
Mon 04:09:37 AM 49.1530 -5.2150 267° West 439 505 35,000  Climbing FlightAware ADS-B
Mon 04:10:06 AM 49.1378 -5.3305 267° West 454 522 33,500  Descending FlightAware UK
Mon 04:10:17 AM 49.1480 -5.3390 267° West 439 505 35,000  Climbing FlightAware ADS-B
Mon 04:10:42 AM 49.1335 -5.4412 267° West 456 525 33,500  Descending FlightAware UK
Mon 04:11:02 AM 49.1420 -5.4800 267° West 440 506 35,000  Climbing FlightAware ADS-B
Mon 04:11:18 AM 49.1288 -5.5522 267° West 456 525 33,500 -2,647 Descending FlightAware UK
Mon 04:11:36 AM 49.1264 -5.6076 266° West 456 525 33,500 3,750 Level FlightAware UK
Mon 04:11:42 AM 49.1370 -5.6040 266° West 441 507 35,000  Climbing FlightAware ADS-B
Mon 04:12:06 AM 49.1224 -5.6999 266° West 456 525 33,500  Descending FlightAware UK
Mon 04:12:27 AM 49.1310 -5.7420 266° West 441 507 35,000  Climbing FlightAware ADS-B
Mon 04:12:42 AM 49.1175 -5.8107 266° West 454 522 33,500 -2,727 Descending FlightAware UK
Mon 04:13:00 AM 49.1151 -5.8660 266° West 456 525 33,500 3,600 Level FlightAware UK
Mon 04:13:07 AM 49.1260 -5.8670 266° West 441 507 35,000  Climbing FlightAware ADS-B
Mon 04:13:24 AM 49.1120 -5.9392 266° West 456 525 33,500 -2,571 Descending FlightAware UK
Mon 04:13:42 AM 49.1095 -5.9945 266° West 456 525 33,500 3,913 Level FlightAware UK
Mon 04:13:47 AM 49.1200 -5.9920 266° West 441 507 35,000  Climbing FlightAware ADS-B
Mon 04:14:06 AM 49.1060 -6.0682 266° West 456 525 33,500 -2,432 Descending FlightAware UK
Mon 04:14:24 AM 49.1034 -6.1235 266° West 456 525 33,500 3,462 Level FlightAware UK
Mon 04:14:32 AM 49.1140 -6.1310 266° West 440 506 35,000  Climbing FlightAware ADS-B
Mon 04:14:54 AM 49.0989 -6.2155 266° West 452 520 33,500  Descending FlightAware UK
Mon 04:15:12 AM 49.1080 -6.2530 266° West 440 506 35,000  Climbing FlightAware ADS-B
Mon 04:15:30 AM 49.0935 -6.3257 266° West 454 522 33,500 -2,500 Descending FlightAware UK
Mon 04:15:48 AM 49.0909 -6.3808 266° West 454 522 33,500 3,333 Level FlightAware UK
Mon 04:15:57 AM 49.1010 -6.3930 266° West 440 506 35,000  Climbing FlightAware ADS-B
Mon 04:16:12 AM 49.0875 -6.4543 266° West 452 520 33,500 -2,727 Descending FlightAware UK
Mon 04:16:30 AM 49.0847 -6.5094 266° West 452 520 33,500 3,600 Level FlightAware UK
Mon 04:16:37 AM 49.0950 -6.5070 266° West 440 506 35,000  Climbing FlightAware ADS-B
Mon 04:16:54 AM 49.0809 -6.5829 266° West 450 518 33,500  Descending FlightAware UK
Mon 04:17:17 AM 49.0890 -6.6400 266° West 441 507 35,000  Climbing FlightAware ADS-B
Mon 04:17:36 AM 49.0770 -6.7118 266° West 454 522 33,500  Descending FlightAware UK
Mon 04:17:57 AM 49.0890 -6.7620 266° West 434 499 35,000  Climbing FlightAware ADS-B
Mon 04:18:12 AM 49.0814 -6.8206 266° West 452 520 33,500  Descending FlightAware UK
Mon 04:18:42 AM 49.0950 -6.8980 266° West 435 501 35,000  Climbing FlightAware ADS-B
Mon 04:19:00 AM 49.0866 -6.9653 266° West 452 520 33,500 -2,500 Descending FlightAware UK
Mon 04:19:18 AM 49.0876 -7.0202 272° West 452 520 33,500 3,333 Level FlightAware UK
Mon 04:19:27 AM 49.0980 -7.0380 272° West 437 503 35,000  Climbing FlightAware ADS-B
Mon 04:19:42 AM 49.0885 -7.0934 272° West 454 522 33,500 -2,727 Descending FlightAware UK
Mon 04:20:00 AM 49.0891 -7.1485 271° West 454 522 33,500 4,500 Level FlightAware UK
Mon 04:20:02 AM 49.0990 -7.1420 271° West 438 504 35,000  Climbing FlightAware ADS-B
Mon 04:20:18 AM 49.0899 -7.2036 271° West 456 525 33,500 -2,647 Descending FlightAware UK
Mon 04:20:36 AM 49.0906 -7.2587 271° West 452 520 33,500 3,750 Level FlightAware UK
Mon 04:20:42 AM 49.1010 -7.2650 271° West 439 505 35,000  Climbing FlightAware ADS-B
Mon 04:21:00 AM 49.0917 -7.3322 271° West 452 520 33,500 -2,500 Descending FlightAware UK
Mon 04:21:18 AM 49.0925 -7.3874 271° West 454 522 33,500 4,091 Level FlightAware UK
Mon 04:21:22 AM 49.1030 -7.3900 271° West 439 505 35,000  Climbing FlightAware ADS-B
Mon 04:21:42 AM 49.0936 -7.4610 271° West 456 525 33,500 -2,368 Descending FlightAware UK
Mon 04:22:00 AM 49.0946 -7.5163 272° West 456 525 33,500 3,600 Level FlightAware UK
Mon 04:22:07 AM 49.1050 -7.5180 272° West 441 507 35,000  Climbing FlightAware ADS-B
Mon 04:22:24 AM 49.0957 -7.5900 272° West 458 527 33,500 -2,571 Descending FlightAware UK
Mon 04:22:42 AM 49.0965 -7.6454 271° West 460 529 33,500 3,913 Level FlightAware UK
Mon 04:22:47 AM 49.1070 -7.6560 271° West 441 507 35,000  Climbing FlightAware ADS-B
Mon 04:23:06 AM 49.0975 -7.7194 271° West 460 529 33,500 -2,432 Descending FlightAware UK
Mon 04:23:24 AM 49.0983 -7.7748 271° West 460 529 33,500 4,286 Level FlightAware UK
Mon 04:23:27 AM 49.1080 -7.7880 271° West 441 507 35,000  Climbing FlightAware ADS-B
Mon 04:23:42 AM 49.0990 -7.8303 271° West 462 532 33,500 -2,727 Descending FlightAware UK
Mon 04:24:00 AM 49.0996 -7.8858 271° West 464 534 33,500 3,000 Level FlightAware UK
Mon 04:24:12 AM 49.1100 -7.9240 271° West 441 507 35,000  Climbing FlightAware ADS-B
Mon 04:24:30 AM 49.1007 -7.9782 271° West 466 536 33,500 -2,500 Descending FlightAware UK
Mon 04:24:48 AM 49.1015 -8.0337 271° West 464 534 33,500 2,432 Level FlightAware UK
Mon 04:25:07 AM 49.1120 -8.0870 271° West 439 505 35,000  Climbing FlightAware ADS-B
Mon 04:25:24 AM 49.1029 -8.1436 271° West 464 534 33,500 -2,571 Descending FlightAware UK
Mon 04:25:42 AM 49.1037 -8.1986 271° West 464 534 33,500 3,214 Level FlightAware UK
Mon 04:25:52 AM 49.1140 -8.2360 271° West 437 503 35,000  Climbing FlightAware ADS-B
Mon 04:26:12 AM 49.1051 -8.2903 271° West 464 534 33,500 -1,737 Descending FlightAware UK
Mon 04:26:30 AM 49.1060 -8.3451 271° West 458 527 33,900 5,400 Climbing FlightAware UK
Mon 04:26:32 AM 49.1160 -8.3490 271° West 431 496 35,300 1,000 Climbing FlightAware ADS-B
Mon 04:26:48 AM 49.1065 -8.3994 271° West 456 525 34,200 -1,412 Descending FlightAware UK
Mon 04:27:06 AM 49.1071 -8.4533 271° West 456 525 34,500 3,724 Climbing FlightAware UK
Mon 04:27:17 AM 49.1170 -8.4950 271° West 429 494 36,000  Climbing FlightAware ADS-B
Mon 04:27:36 AM 49.1084 -8.5421 271° West 458 527 34,500 -2,432 Descending FlightAware UK
Mon 04:27:54 AM 49.1089 -8.5955 271° West 458 527 34,500 4,286 Level FlightAware UK
Mon 04:27:57 AM 49.1190 -8.6190 271° West 427 491 36,000  Climbing FlightAware ADS-B
Mon 04:28:12 AM 49.1094 -8.6492 271° West 456 525 34,500 -2,727 Descending FlightAware UK
Mon 04:28:30 AM 49.1099 -8.7028 271° West 456 525 34,500 3,000 Level FlightAware UK
Mon 04:28:42 AM 49.1190 -8.7430 271° West 425 489 36,000  Climbing FlightAware ADS-B
Mon 04:28:48 AM 49.1105 -8.7562 271° West 456 525 34,500 -5,000 Descending FlightAware UK
Mon 04:29:00 AM 49.1107 -8.7917 271° West 456 525 34,500  Level FlightAware UK
Mon 04:29:18 AM 49.1112 -8.8449 271° West 456 525 34,500 2,813 Level FlightAware UK
Mon 04:29:32 AM 49.1210 -8.8890 271° West 421 484 36,000  Climbing FlightAware ADS-B
Mon 04:29:48 AM 49.1119 -8.9332 271° West 456 525 34,500 -2,250 Descending FlightAware UK
Mon 04:30:12 AM 49.1125 -9.0036 271° West 454 522 34,500 3,103 Level FlightAware UK
Mon 04:30:17 AM 49.1210 -9.0050 271° West 421 484 36,000 2,000 Climbing FlightAware ADS-B
Mon 04:30:57 AM 49.1210 -9.1070 270° West 421 484 36,000  Level FlightAware ADS-B
Mon 04:31:37 AM 49.1210 -9.2080 270° West 421 484 36,000  Level FlightAware ADS-B
Mon 04:32:17 AM 49.1210 -9.3090 270° West 421 484 36,000  Level FlightAware ADS-B
Mon 04:32:57 AM 49.1210 -9.4100 270° West 421 484 36,000  Level FlightAware ADS-B
Mon 04:33:47 AM 49.1210 -9.5370 270° West 421 484 36,000  Level FlightAware ADS-B
Mon 04:34:27 AM 49.1210 -9.6380 270° West 421 484 36,000  Level FlightAware ADS-B
Mon 04:35:07 AM 49.1210 -9.7390 270° West 421 484 36,000  Level FlightAware ADS-B
Mon 04:35:47 AM 49.1210 -9.8400 270° West 421 484 36,000  Level FlightAware ADS-B
Mon 04:36:27 AM 49.1210 -9.9410 270° West 421 484 36,000  Level FlightAware ADS-B
Mon 04:37:17 AM 49.1210 -10.0680 270° West 421 484 36,000  Level FlightAware ADS-B
Mon 04:37:57 AM 49.1210 -10.1690 270° West 421 484 36,000  Level FlightAware ADS-B
Mon 04:38:37 AM 49.1210 -10.2700 270° West 421 484 36,000  Level FlightAware ADS-B
Mon 04:39:17 AM 49.1210 -10.3710 270° West 421 484 36,000  Level FlightAware ADS-B
Mon 04:41:00 AM 49.1519 -10.6497 280° West  Level FlightAware Approximate
Mon 04:42:00 AM 49.1695 -10.8122 279° West  Level FlightAware Approximate
Mon 04:43:00 AM 49.1869 -10.9748 279° West  Level FlightAware Approximate
Mon 04:44:00 AM 49.2041 -11.1375 279° West  Level FlightAware Approximate
Mon 04:45:00 AM 49.2211 -11.3003 279° West  Level FlightAware Approximate
Mon 04:46:00 AM 49.2379 -11.4633 279° West  Level FlightAware Approximate
Mon 04:47:00 AM 49.2544 -11.6263 279° West  Level FlightAware Approximate
Mon 04:48:00 AM 49.2707 -11.7895 279° West  Level FlightAware Approximate
Mon 04:49:00 AM 49.2867 -11.9528 279° West  Level FlightAware Approximate
Mon 04:50:00 AM 49.3025 -12.1161 279° West  Level FlightAware Approximate
Mon 04:51:00 AM 49.3181 -12.2796 278° West  Level FlightAware Approximate
Mon 04:52:00 AM 49.3335 -12.4432 278° West  Level FlightAware Approximate
Mon 04:53:00 AM 49.3486 -12.6069 278° West  Level FlightAware Approximate
Mon 04:54:00 AM 49.3635 -12.7706 278° West  Level FlightAware Approximate
Mon 04:55:00 AM 49.3782 -12.9345 278° West  Level FlightAware Approximate
Mon 04:56:00 AM 49.3926 -13.0985 278° West  Level FlightAware Approximate
Mon 04:57:00 AM 49.4068 -13.2626 278° West  Level FlightAware Approximate
Mon 04:58:00 AM 49.4208 -13.4268 278° West  Level FlightAware Approximate
Mon 04:59:00 AM 49.4346 -13.5910 277° West  Level FlightAware Approximate
Mon 05:00:00 AM 49.4481 -13.7554 277° West  Level FlightAware Approximate
Mon 05:01:00 AM 49.4613 -13.9198 277° West  Level FlightAware Approximate
Mon 05:02:00 AM 49.4744 -14.0843 277° West  Level FlightAware Approximate
Mon 05:03:00 AM 49.4872 -14.2490 277° West  Level FlightAware Approximate
Mon 05:04:00 AM 49.4998 -14.4137 277° West  Level FlightAware Approximate
Mon 05:05:00 AM 49.5100 -14.5817 275° West  Level FlightAware Approximate
Mon 05:06:00 AM 49.5198 -14.7470 275° West  Level FlightAware Approximate
Mon 05:07:00 AM 49.5293 -14.9122 275° West  Level FlightAware Approximate
Mon 05:08:00 AM 49.5385 -15.0776 275° West  Level FlightAware Approximate
Mon 05:09:00 AM 49.5473 -15.2431 275° West  Level FlightAware Approximate
Mon 05:10:00 AM 49.5558 -15.4086 275° West  Level FlightAware Approximate
Mon 05:11:00 AM 49.5642 -15.5741 274° West  Level FlightAware Approximate
Mon 05:12:00 AM 49.5722 -15.7398 274° West  Level FlightAware Approximate
Mon 05:13:00 AM 49.5801 -15.9054 274° West  Level FlightAware Approximate
Mon 05:14:00 AM 49.5877 -16.0712 274° West  Level FlightAware Approximate
Mon 05:15:00 AM 49.5951 -16.2369 274° West  Level FlightAware Approximate
Mon 05:16:00 AM 49.6016 -16.4028 273° West  Level FlightAware Approximate
Mon 05:17:00 AM 49.6064 -16.5689 273° West  Level FlightAware Approximate
Mon 05:18:00 AM 49.6110 -16.7350 273° West  Level FlightAware Approximate
Mon 05:19:00 AM 49.6154 -16.9011 272° West  Level FlightAware Approximate
Mon 05:20:00 AM 49.6195 -17.0672 272° West  Level FlightAware Approximate
Mon 05:21:00 AM 49.6234 -17.2334 272° West  Level FlightAware Approximate
Mon 05:22:00 AM 49.6270 -17.3996 272° West  Level FlightAware Approximate
Mon 05:23:00 AM 49.6305 -17.5658 272° West  Level FlightAware Approximate
Mon 05:24:00 AM 49.6337 -17.7320 272° West  Level FlightAware Approximate
Mon 05:25:00 AM 49.6375 -17.8982 272° West  Level FlightAware Approximate
Mon 05:26:00 AM 49.6412 -18.0645 272° West  Level FlightAware Approximate
Mon 05:27:00 AM 49.6445 -18.2307 272° West  Level FlightAware Approximate
Mon 05:28:00 AM 49.6477 -18.3970 272° West  Level FlightAware Approximate
Mon 05:29:00 AM 49.6505 -18.5633 272° West  Level FlightAware Approximate
Mon 05:30:00 AM 49.6532 -18.7297 271° West  Level FlightAware Approximate
Mon 05:31:00 AM 49.6556 -18.8960 271° West  Level FlightAware Approximate
Mon 05:32:00 AM 49.6578 -19.0624 271° West  Level FlightAware Approximate
Mon 05:33:00 AM 49.6597 -19.2287 271° West  Level FlightAware Approximate
Mon 05:34:00 AM 49.6614 -19.3951 271° West  Level FlightAware Approximate
Mon 05:34:00 AM 48.0000 -20.0000 257° West 433 498 36,000  Level ETMS Enhanced Traffic Management System
Mon 05:35:00 AM 49.6629 -19.5615 271° West  Level FlightAware Approximate
Mon 05:36:00 AM 49.6641 -19.7279 271° West  Level FlightAware Approximate
Mon 05:37:00 AM 49.6651 -19.8944 271° West  Level FlightAware Approximate
Mon 05:38:00 AM 49.6659 -20.0608 270° West  Level FlightAware Approximate
Mon 05:39:00 AM 49.6664 -20.2272 270° West  Level FlightAware Approximate
Mon 05:40:00 AM 49.6666 -20.3936 270° West  Level FlightAware Approximate
Mon 05:41:00 AM 47.7808 -21.3983 256° West 433 498 36,000  Level FlightAware Transoceanic
Mon 05:42:00 AM 47.7522 -21.5722 256° West 433 498 36,000  Level FlightAware Transoceanic
Mon 05:43:00 AM 47.7233 -21.7460 256° West 433 498 36,000  Level FlightAware Transoceanic
Mon 05:44:00 AM 47.6942 -21.9195 256° West 433 498 36,000  Level FlightAware Transoceanic
Mon 05:45:00 AM 47.6648 -22.0929 256° West 433 498 36,000  Level FlightAware Transoceanic
Mon 05:46:00 AM 47.6352 -22.2660 256° West 433 498 36,000  Level FlightAware Transoceanic
Mon 05:47:00 AM 47.6053 -22.4390 256° West 433 498 36,000  Level FlightAware Transoceanic
Mon 05:48:00 AM 47.5751 -22.6118 255° West 433 498 36,000  Level FlightAware Transoceanic
Mon 05:49:00 AM 47.5447 -22.7843 255° West 433 498 36,000  Level FlightAware Transoceanic
Mon 05:50:00 AM 47.5140 -22.9567 255° West 433 498 36,000  Level FlightAware Transoceanic
Mon 05:51:00 AM 47.4830 -23.1289 255° West 433 498 36,000  Level FlightAware Transoceanic
Mon 05:52:00 AM 47.4519 -23.3008 255° West 433 498 36,000  Level FlightAware Transoceanic
Mon 05:53:00 AM 47.4204 -23.4726 255° West 433 498 36,000  Level FlightAware Transoceanic
Mon 05:54:00 AM 47.3887 -23.6441 255° West 433 498 36,000  Level FlightAware Transoceanic
Mon 05:55:00 AM 47.3567 -23.8155 255° West 433 498 36,000  Level FlightAware Transoceanic
Mon 05:56:00 AM 47.3245 -23.9866 254° West 433 498 36,000  Level FlightAware Transoceanic
Mon 05:57:00 AM 47.2920 -24.1575 254° West 433 498 36,000  Level FlightAware Transoceanic
Mon 05:58:00 AM 47.2593 -24.3283 254° West 433 498 36,000  Level FlightAware Transoceanic
Mon 05:59:00 AM 47.2263 -24.4988 254° West 433 498 36,000  Level FlightAware Transoceanic
Mon 06:00:00 AM 47.1931 -24.6690 254° West 433 498 36,000  Level FlightAware Transoceanic
Mon 06:01:00 AM 47.1596 -24.8391 254° West 433 498 36,000  Level FlightAware Transoceanic
Mon 06:02:00 AM 47.1259 -25.0090 254° West 433 498 36,000  Level FlightAware Transoceanic
Mon 06:03:00 AM 47.0919 -25.1786 254° West 433 498 36,000  Level FlightAware Transoceanic
Mon 06:04:00 AM 47.0576 -25.3480 253° West 433 498 36,000  Level FlightAware Transoceanic
Mon 06:05:00 AM 47.0232 -25.5173 253° West 433 498 36,000  Level FlightAware Transoceanic
Mon 06:06:00 AM 46.9884 -25.6863 253° West 433 498 36,000  Level FlightAware Transoceanic
Mon 06:07:00 AM 46.9534 -25.8550 253° West 433 498 36,000  Level FlightAware Transoceanic
Mon 06:08:00 AM 46.9182 -26.0236 253° West 433 498 36,000  Level FlightAware Transoceanic
Mon 06:09:00 AM 46.8827 -26.1919 253° West 433 498 36,000  Level FlightAware Transoceanic
Mon 06:10:00 AM 46.8470 -26.3600 253° West 433 498 36,000  Level FlightAware Transoceanic
Mon 06:11:00 AM 46.8110 -26.5279 253° West 433 498 36,000  Level FlightAware Transoceanic
Mon 06:12:00 AM 46.7748 -26.6955 252° West 433 498 36,000  Level FlightAware Transoceanic
Mon 06:13:00 AM 46.7383 -26.8630 252° West 433 498 36,000  Level FlightAware Transoceanic
Mon 06:14:00 AM 46.7016 -27.0302 252° West 433 498 36,000  Level FlightAware Transoceanic
Mon 06:15:00 AM 46.6647 -27.1971 252° West 433 498 36,000  Level FlightAware Transoceanic
Mon 06:16:00 AM 46.6275 -27.3639 252° West 433 498 36,000  Level FlightAware Transoceanic
Mon 06:17:00 AM 46.5901 -27.5304 252° West 433 498 36,000  Level FlightAware Transoceanic
Mon 06:18:00 AM 46.5524 -27.6967 252° West 433 498 36,000  Level FlightAware Transoceanic
Mon 06:19:00 AM 46.5145 -27.8627 252° West 433 498 36,000  Level FlightAware Transoceanic
Mon 06:20:00 AM 46.4763 -28.0286 251° West 433 498 36,000  Level FlightAware Transoceanic
Mon 06:21:00 AM 46.4379 -28.1942 251° West 433 498 36,000  Level FlightAware Transoceanic
Mon 06:22:00 AM 46.3993 -28.3595 251° West 433 498 36,000  Level FlightAware Transoceanic
Mon 06:23:00 AM 46.3604 -28.5246 251° West 433 498 36,000  Level FlightAware Transoceanic
Mon 06:24:00 AM 46.3213 -28.6895 251° West 433 498 36,000  Level FlightAware Transoceanic
Mon 06:25:00 AM 46.2820 -28.8542 251° West 433 498 36,000  Level FlightAware Transoceanic
Mon 06:26:00 AM 46.2424 -29.0186 251° West 433 498 36,000  Level FlightAware Transoceanic
Mon 06:27:00 AM 46.2026 -29.1827 251° West 433 498 36,000  Level FlightAware Transoceanic
Mon 06:28:00 AM 46.1625 -29.3467 251° West 433 498 36,000  Level FlightAware Transoceanic
Mon 06:29:00 AM 46.1222 -29.5104 250° West 433 498 36,000  Level FlightAware Transoceanic
Mon 06:30:00 AM 46.0817 -29.6738 250° West 433 498 36,000  Level FlightAware Transoceanic
Mon 06:31:00 AM 46.0410 -29.8370 250° West 433 498 36,000  Level FlightAware Transoceanic
Mon 06:32:00 AM 46.0534 -29.9912 277° West  Level Estimated
Mon 06:33:00 AM 46.0657 -30.1454 277° West  Level Estimated
Mon 06:34:00 AM 46.0777 -30.2997 276° West  Level Estimated
Mon 06:35:00 AM 46.0895 -30.4541 276° West  Level Estimated
Mon 06:36:00 AM 46.1012 -30.6085 276° West  Level Estimated
Mon 06:37:00 AM 46.1126 -30.7630 276° West  Level Estimated
Mon 06:38:00 AM 46.1238 -30.9175 276° West  Level Estimated
Mon 06:39:00 AM 46.1348 -31.0722 276° West  Level Estimated
Mon 06:40:00 AM 46.1455 -31.2269 276° West  Level Estimated
Mon 06:41:00 AM 46.1561 -31.3816 276° West  Level Estimated
Mon 06:42:00 AM 46.1665 -31.5364 276° West  Level Estimated
Mon 06:43:00 AM 46.1767 -31.6912 275° West  Level Estimated
Mon 06:44:00 AM 46.1866 -31.8462 275° West  Level Estimated
Mon 06:45:00 AM 46.1963 -32.0011 275° West  Level Estimated
Mon 06:46:00 AM 46.2059 -32.1562 275° West  Level Estimated
Mon 06:47:00 AM 46.2152 -32.3112 275° West  Level Estimated
Mon 06:48:00 AM 46.2243 -32.4664 275° West  Level Estimated
Mon 06:49:00 AM 46.2332 -32.6215 275° West  Level Estimated
Mon 06:50:00 AM 46.2419 -32.7768 275° West  Level Estimated
Mon 06:51:00 AM 46.2504 -32.9320 275° West  Level Estimated
Mon 06:52:00 AM 46.2586 -33.0874 274° West  Level Estimated
Mon 06:53:00 AM 46.2667 -33.2427 274° West  Level Estimated
Mon 06:54:00 AM 46.2746 -33.3982 274° West  Level Estimated
Mon 06:55:00 AM 46.2822 -33.5536 274° West  Level Estimated
Mon 06:56:00 AM 46.2896 -33.7091 274° West  Level Estimated
Mon 06:57:00 AM 46.2968 -33.8647 274° West  Level Estimated
Mon 06:58:00 AM 46.3038 -34.0202 274° West  Level Estimated
Mon 06:59:00 AM 46.3106 -34.1759 274° West  Level Estimated
Mon 07:00:00 AM 46.3172 -34.3315 274° West  Level Estimated
Mon 07:01:00 AM 46.3236 -34.4872 273° West  Level Estimated
Mon 07:02:00 AM 46.3298 -34.6429 273° West  Level Estimated
Mon 07:03:00 AM 46.3357 -34.7987 273° West  Level Estimated
Mon 07:04:00 AM 46.3415 -34.9545 273° West  Level Estimated
Mon 07:05:00 AM 46.3470 -35.1104 273° West  Level Estimated
Mon 07:06:00 AM 46.3523 -35.2662 273° West  Level Estimated
Mon 07:07:00 AM 46.3574 -35.4221 273° West  Level Estimated
Mon 07:08:00 AM 46.3623 -35.5780 273° West  Level Estimated
Mon 07:09:00 AM 46.3670 -35.7340 273° West  Level Estimated
Mon 07:10:00 AM 46.3714 -35.8899 272° West  Level Estimated
Mon 07:11:00 AM 46.3757 -36.0460 272° West  Level Estimated
Mon 07:12:00 AM 46.3797 -36.2020 272° West  Level Estimated
Mon 07:13:00 AM 46.3836 -36.3580 272° West  Level Estimated
Mon 07:14:00 AM 46.3872 -36.5141 272° West  Level Estimated
Mon 07:15:00 AM 46.3906 -36.6702 272° West  Level Estimated
Mon 07:16:00 AM 46.3938 -36.8263 272° West  Level Estimated
Mon 07:17:00 AM 46.3968 -36.9824 272° West  Level Estimated
Mon 07:18:00 AM 46.3996 -37.1386 272° West  Level Estimated
Mon 07:19:00 AM 46.4021 -37.2947 271° West  Level Estimated
Mon 07:20:00 AM 46.4045 -37.4509 271° West  Level Estimated
Mon 07:21:00 AM 46.4066 -37.6071 271° West  Level Estimated
Mon 07:22:00 AM 46.4085 -37.7633 271° West  Level Estimated
Mon 07:23:00 AM 46.4102 -37.9195 271° West  Level Estimated
Mon 07:24:00 AM 46.4117 -38.0757 271° West  Level Estimated
Mon 07:25:00 AM 46.4130 -38.2319 271° West  Level Estimated
Mon 07:26:00 AM 46.4141 -38.3881 271° West  Level Estimated
Mon 07:27:00 AM 46.4149 -38.5444 271° West  Level Estimated
Mon 07:28:00 AM 46.4156 -38.7006 270° West  Level Estimated
Mon 07:29:00 AM 46.4160 -38.8569 270° West  Level Estimated
Mon 07:30:00 AM 46.4162 -39.0131 270° West  Level Estimated
Mon 07:31:00 AM 46.4162 -39.1694 270° West  Level Estimated
Mon 07:32:00 AM 46.4160 -39.3256 270° West  Level Estimated
Mon 07:33:00 AM 46.4156 -39.4818 270° West  Level Estimated
Mon 07:34:00 AM 46.4150 -39.6381 270° West  Level Estimated
Mon 07:35:00 AM 46.4141 -39.7943 270° West  Level Estimated
Mon 07:35:34 AM 44.0000 -40.0000 273° West 443 510 36,000  Level New York Oceanic (ODAPS)
Mon 07:36:00 AM 46.4131 -39.9506 269° West  Level Estimated
Mon 07:37:00 AM 46.4118 -40.1068 269° West  Level Estimated
Mon 07:38:00 AM 46.4103 -40.2630 269° West  Level Estimated
Mon 07:39:00 AM 46.4086 -40.4192 269° West  Level Estimated
Mon 07:40:00 AM 46.4067 -40.5754 269° West  Level Estimated
Mon 07:41:00 AM 44.0572 -41.5495 272° West 443 510 36,000  Level FlightAware Transoceanic
Mon 07:42:00 AM 44.0623 -41.7218 272° West 443 510 36,000  Level FlightAware Transoceanic
Mon 07:43:00 AM 44.0671 -41.8942 272° West 443 510 36,000  Level FlightAware Transoceanic
Mon 07:44:00 AM 44.0716 -42.0666 272° West 443 510 36,000  Level FlightAware Transoceanic
Mon 07:45:00 AM 44.0759 -42.2390 272° West 443 510 36,000  Level FlightAware Transoceanic
Mon 07:45:56 AM 44.0833 -42.4500 272° West 425 489 36,000  Level New York Oceanic (ODAPS)
Mon 07:46:00 AM 44.0799 -42.4115 272° West 443 510 36,000  Level FlightAware Transoceanic
Mon 07:47:00 AM 44.0837 -42.5839 272° West 443 510 36,000  Level FlightAware Transoceanic
Mon 07:48:00 AM 44.0872 -42.7564 272° West 443 510 36,000  Level FlightAware Transoceanic
Mon 07:49:00 AM 44.0905 -42.9289 271° West 443 510 36,000  Level FlightAware Transoceanic
Mon 07:50:00 AM 44.0934 -43.1015 271° West 443 510 36,000  Level FlightAware Transoceanic
Mon 07:51:00 AM 44.0962 -43.2740 271° West 443 510 36,000  Level FlightAware Transoceanic
Mon 07:52:00 AM 44.1007 -43.4351 271° West 425 489 36,000  Level FlightAware Transoceanic
Mon 07:53:00 AM 44.1028 -43.5993 271° West 425 489 36,000  Level FlightAware Transoceanic
Mon 07:54:00 AM 44.1046 -43.7636 271° West 425 489 36,000  Level FlightAware Transoceanic
Mon 07:55:00 AM 44.1062 -43.9278 271° West 425 489 36,000  Level FlightAware Transoceanic
Mon 07:56:00 AM 44.1076 -44.0921 271° West 425 489 36,000  Level FlightAware Transoceanic
Mon 07:57:00 AM 44.1087 -44.2564 270° West 425 489 36,000  Level FlightAware Transoceanic
Mon 07:58:00 AM 44.1096 -44.4206 270° West 425 489 36,000  Level FlightAware Transoceanic
Mon 07:59:00 AM 44.1102 -44.5849 270° West 425 489 36,000  Level FlightAware Transoceanic
Mon 08:00:00 AM 44.1106 -44.7492 270° West 425 489 36,000  Level FlightAware Transoceanic
Mon 08:01:00 AM 44.1108 -44.9135 270° West 425 489 36,000  Level FlightAware Transoceanic
Mon 08:02:00 AM 44.1108 -45.0778 270° West 425 489 36,000  Level FlightAware Transoceanic
Mon 08:03:00 AM 44.1105 -45.2421 270° West 425 489 36,000  Level FlightAware Transoceanic
Mon 08:04:00 AM 44.1100 -45.4063 270° West 425 489 36,000  Level FlightAware Transoceanic
Mon 08:05:00 AM 44.1092 -45.5706 270° West 425 489 36,000  Level FlightAware Transoceanic
Mon 08:06:00 AM 44.1082 -45.7349 269° West 425 489 36,000  Level FlightAware Transoceanic
Mon 08:06:04 AM 44.1000 -45.7500 270° West 409 471 36,000  Level New York Oceanic (ODAPS)
Mon 08:07:00 AM 44.1070 -45.8992 269° West 425 489 36,000  Level FlightAware Transoceanic
Mon 08:08:00 AM 44.1056 -46.0634 269° West 425 489 36,000  Level FlightAware Transoceanic
Mon 08:09:00 AM 44.1039 -46.2277 269° West 425 489 36,000  Level FlightAware Transoceanic
Mon 08:10:00 AM 44.1019 -46.3919 269° West 425 489 36,000  Level FlightAware Transoceanic
Mon 08:11:00 AM 44.0998 -46.5561 269° West 425 489 36,000  Level FlightAware Transoceanic
Mon 08:12:00 AM 44.0914 -46.6955 269° West 409 471 36,000  Level FlightAware Transoceanic
Mon 08:13:00 AM 44.0892 -46.8531 269° West 409 471 36,000  Level FlightAware Transoceanic
Mon 08:14:00 AM 44.0868 -47.0106 269° West 409 471 36,000  Level FlightAware Transoceanic
Mon 08:15:00 AM 44.0842 -47.1681 269° West 409 471 36,000  Level FlightAware Transoceanic
Mon 08:16:00 AM 44.0813 -47.3256 269° West 409 471 36,000  Level FlightAware Transoceanic
Mon 08:17:00 AM 44.0783 -47.4831 268° West 409 471 36,000  Level FlightAware Transoceanic
Mon 08:18:00 AM 44.0750 -47.6406 268° West 409 471 36,000  Level FlightAware Transoceanic
Mon 08:19:00 AM 44.0715 -47.7981 268° West 409 471 36,000  Level FlightAware Transoceanic
Mon 08:20:00 AM 44.0678 -47.9555 268° West 409 471 36,000  Level FlightAware Transoceanic
Mon 08:21:00 AM 44.0639 -48.1129 268° West 409 471 36,000  Level FlightAware Transoceanic
Mon 08:22:00 AM 44.0598 -48.2703 268° West 409 471 36,000  Level FlightAware Transoceanic
Mon 08:23:00 AM 44.0554 -48.4277 268° West 409 471 36,000  Level FlightAware Transoceanic
Mon 08:24:00 AM 44.0508 -48.5851 268° West 409 471 36,000  Level FlightAware Transoceanic
Mon 08:25:00 AM 44.0461 -48.7424 268° West 409 471 36,000  Level FlightAware Transoceanic
Mon 08:26:00 AM 44.0410 -48.8997 267° West 409 471 36,000  Level FlightAware Transoceanic
Mon 08:27:00 AM 44.0358 -49.0570 267° West 409 471 36,000 2,000 Level FlightAware Transoceanic
Mon 08:27:00 AM 44.0500 -48.8333 267° West 388 447 38,000  Climbing New York Oceanic (ODAPS)
Mon 08:28:00 AM 44.0304 -49.2142 267° West 409 471 36,000 -1,000 Descending FlightAware Transoceanic
Mon 08:29:00 AM 44.0247 -49.3714 267° West 409 471 36,000  Level FlightAware Transoceanic
Mon 08:30:00 AM 44.0189 -49.5286 267° West 409 471 36,000 1,714 Level FlightAware Transoceanic
Mon 08:30:10 AM 44.0333 -49.2500 267° West 381 438 38,000  Climbing New York Oceanic (ODAPS)
Mon 08:31:00 AM 44.0128 -49.6858 267° West 409 471 36,000 -1,091 Descending FlightAware Transoceanic
Mon 08:32:00 AM 44.0065 -49.8429 267° West 409 471 36,000 1,000 Level FlightAware Transoceanic
Mon 08:33:00 AM 44.0069 -49.8543 266° West 388 447 38,000 1,000 Climbing FlightAware Transoceanic
Mon 08:34:00 AM 44.0000 -50.0000 274° West 388 447 38,000  Level FlightAware Transoceanic
Mon 08:35:00 AM 44.0075 -50.1405 274° West 388 447 38,000  Level FlightAware Transoceanic
Mon 08:36:00 AM 44.0148 -50.2811 274° West 381 438 38,000  Level FlightAware Transoceanic
Mon 08:36:14 AM 44.0000 -50.2500 274° West 380 437 38,000  Level Gander Center
Mon 08:37:00 AM 44.0219 -50.4217 274° West 381 438 38,000  Level FlightAware Transoceanic
Mon 08:37:14 AM 44.0000 -50.3833 270° West 380 437 38,000  Level Gander Center
Mon 08:38:00 AM 44.0289 -50.5624 274° West 381 438 38,000  Level FlightAware Transoceanic
Mon 08:38:14 AM 44.0167 -50.5167 280° West 380 437 38,000  Level Gander Center
Mon 08:39:00 AM 44.0356 -50.7031 274° West 381 438 38,000  Level FlightAware Transoceanic
Mon 08:39:14 AM 44.0167 -50.6833 270° West 380 437 38,000  Level Gander Center
Mon 08:40:00 AM 44.0423 -50.8438 274° West 381 438 38,000  Level FlightAware Transoceanic
Mon 08:40:14 AM 44.0333 -50.8167 280° West 380 437 38,000  Level Gander Center
Mon 08:41:00 AM 44.0487 -50.9845 274° West 381 438 38,000  Level FlightAware Transoceanic
Mon 08:41:14 AM 44.0333 -50.9500 270° West 380 437 38,000  Level Gander Center
Mon 08:42:14 AM 44.0500 -51.1000 279° West 370 426 38,000  Level Gander Center
Mon 08:43:14 AM 44.0500 -51.2500 270° West 380 437 38,000  Level Gander Center
Mon 08:44:14 AM 44.0500 -51.4000 270° West 380 437 38,000  Level Gander Center
Mon 08:45:11 AM 44.0667 -51.5333 274° West 375 432 38,000  Level New York Oceanic (ODAPS)
Mon 08:46:14 AM 44.0667 -51.7000 274° West 380 437 38,000  Level Gander Center
Mon 08:46:36 AM 44.0833 -51.7667 273° West 371 427 38,000  Level New York Oceanic (ODAPS)
Mon 08:47:14 AM 44.0667 -51.8333 273° West 370 426 38,000  Level Gander Center
Mon 08:48:14 AM 44.0667 -51.9667 270° West 380 437 38,000  Level Gander Center
Mon 08:49:14 AM 44.0833 -52.1167 279° West 370 426 38,000  Level Gander Center
Mon 08:50:14 AM 44.0833 -52.2500 270° West 370 426 38,000  Level Gander Center
Mon 08:51:14 AM 44.1000 -52.3833 280° West 380 437 38,000  Level Gander Center
Mon 08:52:14 AM 44.0833 -52.5500 262° West 360 414 38,000  Level Gander Center
Mon 08:53:14 AM 44.1000 -52.6667 281° West 360 414 38,000  Level Gander Center
Mon 08:54:14 AM 44.1000 -52.8333 270° West 360 414 38,000 100 Level Gander Center
Mon 08:55:14 AM 44.1000 -52.9500 270° West 360 414 38,200 400 Climbing Gander Center
Mon 08:56:14 AM 44.1167 -53.0833 280° West 340 391 38,800 500 Climbing Gander Center
Mon 08:57:14 AM 44.1167 -53.2500 270° West 390 449 39,200 500 Climbing Gander Center
Mon 08:58:14 AM 44.1167 -53.3833 270° West 380 437 39,800 429 Climbing Gander Center
Mon 08:59:06 AM 44.1167 -53.5000 270° West 380 437 40,000 100 Climbing Moncton Center
Mon 09:00:14 AM 44.1333 -53.6833 277° West 390 449 40,000  Level Gander Center
Mon 09:01:14 AM 44.1333 -53.8000 270° West 380 437 40,000  Level Gander Center
Mon 09:02:14 AM 44.1333 -53.9833 270° West 380 437 40,000  Level Gander Center
Mon 09:03:14 AM 44.1333 -54.1333 270° West 390 449 40,000  Level Gander Center
Mon 09:04:14 AM 44.1500 -54.2833 279° West 400 460 40,000  Level Gander Center
Mon 09:05:14 AM 44.1500 -54.4333 270° West 380 437 40,000  Level Gander Center
Mon 09:06:14 AM 44.1500 -54.6000 270° West 410 472 40,000  Level Gander Center
Mon 09:07:14 AM 44.1500 -54.7333 270° West 380 437 40,000  Level Gander Center
Mon 09:08:14 AM 44.1500 -54.8667 270° West 400 460 40,000  Level Gander Center
Mon 09:09:14 AM 44.1500 -55.0333 270° West 370 426 40,000  Level Gander Center
Mon 09:10:14 AM 44.1167 -55.1833 253° West 390 449 40,000  Level Gander Center
Mon 09:11:14 AM 44.1167 -55.3167 270° West 380 437 40,000  Level Gander Center
Mon 09:12:06 AM 44.1000 -55.4500 260° West 380 437 40,000  Level Moncton Center
Mon 09:12:14 AM 44.1000 -55.4500 260° West 390 449 40,000  Level Gander Center
Mon 09:13:06 AM 44.1000 -55.5833 270° West 390 449 40,000  Level Moncton Center
Mon 09:14:06 AM 44.0833 -55.7333 261° West 390 449 40,000  Level Moncton Center
Mon 09:15:14 AM 44.0833 -55.9000 270° West 380 437 40,000  Level Gander Center
Mon 09:21:07 AM 44.0400 -56.8150 270° West 379 436 40,000  Level FlightAware ADS-B
Mon 09:21:47 AM 44.0310 -56.9120 263° West 379 436 40,000  Level FlightAware ADS-B
Mon 09:22:27 AM 44.0240 -57.0100 264° West 381 438 40,000  Level FlightAware ADS-B
Mon 09:23:02 AM 44.0230 -57.0910 269° West 383 441 40,000  Level FlightAware ADS-B
Mon 09:23:47 AM 44.0210 -57.1890 268° West 383 441 40,000  Level FlightAware ADS-B
Mon 09:24:27 AM 44.0230 -57.2960 272° West 384 442 40,000  Level FlightAware ADS-B
Mon 09:25:12 AM 44.0210 -57.3970 268° West 384 442 40,000  Level FlightAware ADS-B
Mon 09:25:57 AM 44.0220 -57.5250 271° West 387 445 40,000  Level FlightAware ADS-B
Mon 09:26:42 AM 44.0210 -57.6340 269° West 387 445 40,000  Level FlightAware ADS-B
Mon 09:27:17 AM 44.0200 -57.7170 269° West 388 447 40,000  Level FlightAware ADS-B
Mon 09:28:07 AM 44.0200 -57.8470 270° West 389 448 40,000  Level FlightAware ADS-B
Mon 09:28:47 AM 44.0190 -57.9400 269° West 390 449 40,000  Level FlightAware ADS-B
Mon 09:29:27 AM 44.0180 -58.0420 269° West 390 449 40,000  Level FlightAware ADS-B
Mon 09:30:12 AM 44.0170 -58.1440 269° West 390 449 40,000  Level FlightAware ADS-B
Mon 09:30:52 AM 44.0160 -58.2290 269° West 390 449 40,000  Level FlightAware ADS-B
Mon 09:31:37 AM 44.0140 -58.3730 269° West 391 450 40,000  Level FlightAware ADS-B
Mon 09:32:17 AM 44.0130 -58.4740 269° West 391 450 40,000  Level FlightAware ADS-B
Mon 09:32:57 AM 44.0120 -58.5740 269° West 392 451 40,000  Level FlightAware ADS-B
Mon 09:33:57 AM 44.0100 -58.7240 269° West 392 451 40,000  Level FlightAware ADS-B
Mon 09:34:37 AM 44.0080 -58.8250 268° West 392 451 40,000  Level FlightAware ADS-B
Mon 09:35:17 AM 44.0070 -58.9250 269° West 392 451 40,000  Level FlightAware ADS-B
Mon 09:36:02 AM 44.0050 -59.0360 269° West 393 452 40,000  Level FlightAware ADS-B
Mon 09:36:42 AM 44.0030 -59.1330 268° West 393 452 40,000  Level FlightAware ADS-B
Mon 09:37:32 AM 44.0000 -59.2550 268° West 393 452 40,000  Level FlightAware ADS-B
Mon 09:38:22 AM 43.9980 -59.3620 269° West 393 452 40,000  Level FlightAware ADS-B
Mon 09:38:57 AM 43.9960 -59.4760 269° West 394 453 40,000  Level FlightAware ADS-B
Mon 09:39:47 AM 43.9940 -59.5990 269° West 394 453 40,000  Level FlightAware ADS-B
Mon 09:40:27 AM 43.9920 -59.6900 268° West 393 452 40,000  Level FlightAware ADS-B
Mon 09:41:12 AM 43.9890 -59.8070 268° West 392 451 40,000  Level FlightAware ADS-B
Mon 09:41:52 AM 43.9870 -59.9120 269° West 391 450 40,000  Level FlightAware ADS-B
Mon 09:42:42 AM 43.9840 -60.0360 268° West 390 449 40,000  Level FlightAware ADS-B
Mon 09:43:32 AM 43.9810 -60.1430 268° West 390 449 40,000  Level FlightAware ADS-B
Mon 09:44:12 AM 43.9790 -60.2280 268° West 390 449 40,000  Level FlightAware ADS-B
Mon 09:44:52 AM 43.9770 -60.3130 268° West 390 449 40,000  Level FlightAware ADS-B
Mon 09:45:32 AM 43.9750 -60.3990 268° West 390 449 40,000  Level FlightAware ADS-B
Mon 09:46:12 AM 43.9730 -60.4840 268° West 390 449 40,000  Level FlightAware ADS-B
Mon 09:47:02 AM 43.9700 -60.5900 268° West 390 449 40,000  Level FlightAware ADS-B
Mon 09:47:42 AM 43.9680 -60.6750 268° West 390 449 40,000  Level FlightAware ADS-B
Mon 09:48:22 AM 43.9660 -60.7610 268° West 390 449 40,000  Level FlightAware ADS-B
Mon 09:49:02 AM 43.9630 -60.8460 267° West 390 449 40,000  Level FlightAware ADS-B
Mon 09:49:42 AM 43.9610 -60.9310 268° West 390 449 40,000  Level FlightAware ADS-B
Mon 09:50:32 AM 43.9590 -61.0370 269° West 390 449 40,000  Level FlightAware ADS-B
Mon 09:51:12 AM 43.9560 -61.1230 267° West 390 449 40,000  Level FlightAware ADS-B
Mon 09:51:52 AM 43.9540 -61.2080 268° West 390 449 40,000  Level FlightAware ADS-B
Mon 09:52:14 AM 43.9000 -61.4167 268° West 370 426 40,000  Level Gander Center
Mon 09:53:14 AM 43.9000 -61.5667 270° West 370 426 40,000  Level Gander Center
Mon 09:54:14 AM 43.9000 -61.7000 270° West 370 426 40,000  Level Gander Center
Mon 09:55:14 AM 43.9000 -61.8667 270° West 370 426 40,000  Level Gander Center
Mon 09:56:14 AM 43.8833 -61.9667 257° West 370 426 40,000  Level Gander Center
Mon 09:57:14 AM 43.8667 -62.1333 262° West 370 426 40,000  Level Gander Center
Mon 09:58:14 AM 43.8667 -62.2833 270° West 370 426 40,000  Level Gander Center
Mon 09:59:14 AM 43.8500 -62.4167 260° West 370 426 40,000  Level Gander Center
Mon 10:00:06 AM 43.8500 -62.5500 270° West 370 426 40,000  Level Moncton Center
Mon 10:01:06 AM 43.8333 -62.6833 260° West 370 426 40,000  Level Moncton Center
Mon 10:02:06 AM 43.8333 -62.8167 270° West 380 437 40,000  Level Moncton Center
Mon 10:03:06 AM 43.8333 -62.9667 270° West 380 437 40,000  Level Moncton Center
Mon 10:04:14 AM 43.8333 -63.1500 270° West 380 437 40,000  Level Gander Center
Mon 10:05:14 AM 43.8167 -63.2833 260° West 380 437 40,000  Level Gander Center
Mon 10:06:14 AM 43.8000 -63.4333 261° West 380 437 40,000  Level Gander Center
Mon 10:07:06 AM 43.8000 -63.5667 270° West 380 437 40,000  Level Moncton Center
Mon 10:13:17 AM 43.7960 -64.4830 270° West 383 441 40,000  Level FlightAware ADS-B
Mon 10:14:02 AM 43.7890 -64.6020 265° West 380 437 40,000  Level FlightAware ADS-B
Mon 10:14:42 AM 43.7820 -64.7010 264° West 378 435 40,000  Level FlightAware ADS-B
Mon 10:15:27 AM 43.7750 -64.8110 265° West 375 432 40,000  Level FlightAware ADS-B
Mon 10:16:07 AM 43.7690 -64.9050 265° West 373 429 40,000  Level FlightAware ADS-B
Mon 10:16:52 AM 43.7620 -65.0110 265° West 371 427 40,000  Level FlightAware ADS-B
Mon 10:17:32 AM 43.7550 -65.1090 264° West 370 426 40,000  Level FlightAware ADS-B
Mon 10:18:12 AM 43.7480 -65.2020 264° West 369 425 40,000  Level FlightAware ADS-B
Mon 10:18:57 AM 43.7410 -65.3060 265° West 367 422 40,000  Level FlightAware ADS-B
Mon 10:19:37 AM 43.7340 -65.4000 264° West 366 421 40,000  Level FlightAware ADS-B
Mon 10:20:22 AM 43.7260 -65.5060 264° West 365 420 40,000  Level FlightAware ADS-B
Mon 10:21:57 AM 43.7100 -65.7270 264° West 365 420 40,000  Level FlightAware ADS-B
Mon 10:23:07 AM 43.6980 -65.8860 264° West 363 418 40,000  Level FlightAware ADS-B
Mon 10:24:17 AM 43.6850 -66.0500 264° West 362 417 40,000  Level FlightAware ADS-B
Mon 10:25:27 AM 43.6720 -66.2100 264° West 361 415 40,000  Level FlightAware ADS-B
Mon 10:26:52 AM 43.6560 -66.3950 263° West 360 414 40,000  Level FlightAware ADS-B
Mon 10:27:37 AM 43.6470 -66.4980 263° West 359 413 40,000  Level FlightAware ADS-B
Mon 10:28:17 AM 43.6400 -66.5880 264° West 358 412 40,000  Level FlightAware ADS-B
Mon 10:29:02 AM 43.6310 -66.6920 263° West 358 412 40,000  Level FlightAware ADS-B
Mon 10:29:42 AM 43.6230 -66.7800 263° West 357 411 40,000  Level FlightAware ADS-B
Mon 10:30:17 AM 43.6160 -66.8620 263° West 357 411 40,000  Level FlightAware ADS-B
Mon 10:31:07 AM 43.6050 -66.9760 262° West 358 412 40,000  Level FlightAware ADS-B
Mon 10:31:47 AM 43.5890 -67.0600 255° West 356 410 40,000  Level FlightAware ADS-B
Mon 10:32:32 AM 43.5610 -67.1570 248° West 357 411 40,000  Level FlightAware ADS-B
Mon 10:33:12 AM 43.5370 -67.2420 249° West 357 411 40,000  Level FlightAware ADS-B
Mon 10:33:52 AM 43.5130 -67.3260 249° West 358 412 40,000  Level FlightAware ADS-B
Mon 10:34:32 AM 43.4890 -67.4080 248° West 358 412 40,000  Level FlightAware ADS-B
Mon 10:35:07 AM 43.4670 -67.4850 249° West 358 412 40,000  Level FlightAware ADS-B
Mon 10:35:57 AM 43.4360 -67.5910 248° West 358 412 40,000  Level FlightAware ADS-B
Mon 10:36:42 AM 43.4080 -67.6870 248° West 358 412 40,000  Level FlightAware ADS-B
Mon 10:37:22 AM 43.3830 -67.7710 248° West 358 412 40,000  Level FlightAware ADS-B
Mon 10:38:07 AM 43.3550 -67.8660 248° West 357 411 40,000  Level FlightAware ADS-B
Mon 10:38:47 AM 43.3310 -67.9480 248° West 354 407 40,000  Level FlightAware ADS-B
Mon 10:39:27 AM 43.3050 -68.0330 247° West 353 406 40,000 -600 Level FlightAware ADS-B
Mon 10:40:07 AM 43.2800 -68.1180 248° West 354 407 39,200 -1,125 Descending FlightAware ADS-B
Mon 10:40:47 AM 43.2550 -68.2010 248° West 353 406 38,500 -800 Descending FlightAware ADS-B
Mon 10:41:37 AM 43.2260 -68.2970 248° West 353 406 38,000 -353 Descending FlightAware ADS-B
Mon 10:42:12 AM 43.2060 -68.3600 246° West 353 406 38,000  Level FlightAware ADS-B
Mon 10:42:57 AM 43.1780 -68.4560 248° West 333 383 38,000  Level FlightAware ADS-B
Mon 10:43:42 AM 43.1520 -68.5430 248° West 337 388 38,000  Level FlightAware ADS-B
Mon 10:44:22 AM 43.1270 -68.6240 247° West 342 394 38,000  Level FlightAware ADS-B
Mon 10:45:02 AM 43.1030 -68.7030 247° West 344 396 38,000  Level FlightAware ADS-B
Mon 10:45:47 AM 43.0780 -68.7820 247° West 346 398 38,000  Level FlightAware ADS-B
Mon 10:46:27 AM 43.0500 -68.8750 248° West 345 397 38,000  Level FlightAware ADS-B
Mon 10:47:12 AM 43.0220 -68.9660 247° West 346 398 38,000  Level FlightAware ADS-B
Mon 10:47:52 AM 42.9960 -69.0470 246° West 345 397 38,000  Level FlightAware ADS-B
Mon 10:48:32 AM 42.9710 -69.1280 247° West 344 396 38,000  Level FlightAware ADS-B
Mon 10:49:17 AM 42.9430 -69.2180 247° West 342 394 38,000  Level FlightAware ADS-B
Mon 10:49:57 AM 42.9210 -69.2900 247° West 343 395 38,000  Level FlightAware ADS-B
Mon 10:50:37 AM 42.8950 -69.3700 246° West 342 394 38,000  Level FlightAware ADS-B
Mon 10:51:17 AM 42.8700 -69.4510 247° West 338 389 38,000  Level FlightAware ADS-B
Mon 10:52:02 AM 42.8420 -69.5390 247° West 336 387 38,000  Level FlightAware ADS-B
Mon 10:52:37 AM 42.8210 -69.6080 247° West 335 386 38,000  Level FlightAware ADS-B
Mon 10:53:27 AM 42.7900 -69.7050 246° West 334 384 38,000  Level FlightAware ADS-B
Mon 10:54:12 AM 42.7630 -69.7920 247° West 333 383 38,000  Level FlightAware ADS-B
Mon 10:54:52 AM 42.7380 -69.8700 246° West 333 383 38,000  Level FlightAware ADS-B
Mon 10:55:32 AM 42.7130 -69.9460 246° West 334 384 38,000 -353 Level FlightAware ADS-B
Mon 10:56:17 AM 42.6870 -70.0280 247° West 333 383 37,500 -1,482 Descending FlightAware ADS-B
Mon 10:56:57 AM 42.6610 -70.1090 246° West 333 383 35,900 -2,471 Descending FlightAware ADS-B
Mon 10:57:42 AM 42.6330 -70.1950 246° West 336 387 34,000 -2,682 Descending FlightAware ADS-B
Mon 10:58:22 AM 42.6100 -70.2680 247° West 343 395 32,100 -3,075 Descending FlightAware ADS-B
Mon 10:59:02 AM 42.5820 -70.3560 247° West 351 404 29,900 -2,753 Descending FlightAware ADS-B
Mon 10:59:47 AM 42.5520 -70.4470 246° West 356 410 28,200 -1,341 Descending FlightAware ADS-B
Mon 11:00:27 AM 42.5250 -70.5300 246° West 369 425 28,000 -141 Descending FlightAware ADS-B
Mon 11:01:12 AM 42.4940 -70.6270 247° West 376 433 28,000  Level FlightAware ADS-B
Mon 11:01:52 AM 42.4650 -70.7140 246° West 373 429 28,000 -675 Level FlightAware ADS-B
Mon 11:02:32 AM 42.4370 -70.8000 246° West 371 427 27,100 -1,906 Descending FlightAware ADS-B
Mon 11:03:17 AM 42.4070 -70.8920 246° West 371 427 25,300 -2,188 Descending FlightAware ADS-B
Mon 11:03:57 AM 42.3820 -70.9730 247° West 371 427 24,000 -1,271 Descending FlightAware ADS-B
Mon 11:04:42 AM 42.3560 -71.0800 252° West 374 430 23,500 -635 Descending FlightAware ADS-B
Mon 11:05:22 AM 42.3350 -71.1650 252° West 371 427 23,100 -635 Descending FlightAware ADS-B
Mon 11:06:07 AM 42.3110 -71.2690 253° West 368 423 22,600 -635 Descending FlightAware ADS-B
Mon 11:06:47 AM 42.2900 -71.3560 252° West 366 421 22,200 -450 Descending FlightAware ADS-B
Mon 11:07:27 AM 42.2700 -71.4410 252° West 364 419 22,000 -141 Descending FlightAware ADS-B
Mon 11:08:12 AM 42.2460 -71.5390 252° West 366 421 22,000  Level FlightAware ADS-B
Mon 11:08:52 AM 42.2260 -71.6260 253° West 366 421 22,000  Level FlightAware ADS-B
Mon 11:09:37 AM 42.2020 -71.7220 251° West 369 425 22,000  Level FlightAware ADS-B
Mon 11:10:17 AM 42.1830 -71.8010 252° West 370 426 22,000  Level FlightAware ADS-B
Mon 11:11:02 AM 42.1580 -71.9050 252° West 371 427 22,000  Level FlightAware ADS-B
Mon 11:11:42 AM 42.1350 -71.9990 252° West 371 427 22,000  Level FlightAware ADS-B
Mon 11:12:22 AM 42.1150 -72.0830 252° West 371 427 22,000  Level FlightAware ADS-B
Mon 11:13:07 AM 42.0920 -72.1780 252° West 370 426 22,000  Level FlightAware ADS-B
Mon 11:13:57 AM 42.0660 -72.2820 251° West 370 426 22,000 -840 Level FlightAware ADS-B
Mon 11:14:47 AM 42.0360 -72.4040 252° West 359 413 20,600 -1,000 Descending FlightAware ADS-B
Mon 11:15:27 AM 42.0180 -72.4750 251° West 359 413 20,500 -75 Descending FlightAware ADS-B
Mon 11:16:07 AM 42.0000 -72.5460 251° West 359 413 20,500  Level FlightAware ADS-B
Mon 11:16:47 AM 41.9820 -72.6180 251° West 359 413 20,500  Level FlightAware ADS-B
Mon 11:17:27 AM 41.9630 -72.6900 250° West 359 413 20,500  Level FlightAware ADS-B
Mon 11:18:17 AM 41.9400 -72.7800 251° West 359 413 20,500  Level FlightAware ADS-B
Mon 11:18:47 AM 41.9260 -72.8340 251° West 359 413 20,500 -2,013 Level FlightAware ADS-B
Mon 11:20:52 AM 41.8550 -73.1670 254° West 351 404 15,300 -1,783 Descending FlightAware ADS-B
Mon 11:21:42 AM 41.8310 -73.2680 252° West 351 404 15,300  Level FlightAware ADS-B
Mon 11:22:37 AM 41.8040 -73.3830 253° West 350 403 15,300  Level FlightAware ADS-B
Mon 11:23:17 AM 41.7870 -73.4530 252° West 350 403 15,300 -1,875 Level FlightAware ADS-B
Mon 11:23:57 AM 41.7650 -73.5520 253° West 338 389 12,800 -1,765 Descending FlightAware ADS-B
Mon 11:24:42 AM 41.7460 -73.6300 252° West 338 389 12,800 -1,467 Level FlightAware ADS-B
Mon 11:25:27 AM 41.7220 -73.7310 252° West 333 383 10,600 -2,320 Descending FlightAware ADS-B
Mon 11:25:57 AM 41.7090 -73.7870 253° West 333 383 9,900 -1,309 Descending FlightAware ADS-B
Mon 11:26:22 AM 41.6970 -73.8370 252° West 325 374 9,400 -655 Descending FlightAware ADS-B
Mon 11:26:52 AM 41.6840 -73.8940 253° West 322 371 9,300 -92 Descending FlightAware ADS-B
Mon 11:27:27 AM 41.6710 -73.9530 254° West 310 357 9,300  Level FlightAware ADS-B
Mon 11:27:57 AM 41.6600 -74.0000 253° West 310 357 9,300  Level FlightAware ADS-B
Mon 11:28:27 AM 41.6490 -74.0460 252° West 310 357 9,300  Level FlightAware ADS-B
Mon 11:28:57 AM 41.6390 -74.0930 254° West 310 357 9,300 -1,282 Level FlightAware ADS-B
Mon 11:30:10 AM 41.5667 -74.2333 254° West 284 327 7,100 -1,039 Descending New York TRACON
Mon 11:31:04 AM 41.5333 -74.3333 246° West 286 329 7,100 -260 Level New York TRACON
Mon 11:36:42 AM 41.1950 -74.5030 246° West 263 303 5,400 -310 Descending FlightAware ADS-B
Mon 11:36:52 AM 41.1820 -74.5080 196° South 261 300 5,300 -960 Descending FlightAware ADS-B
Mon 11:37:07 AM 41.1633 -74.5167 199° South 254 292 5,000 -1,355 Descending FlightAware ADS-B
Mon 11:37:23 AM 41.1452 -74.5247 198° South 253 291 4,600 -1,125 Descending FlightAware ADS-B
Mon 11:37:39 AM 41.1285 -74.5321 198° South 254 292 4,400 -203 Descending FlightAware ADS-B
Mon 11:38:22 AM 41.0850 -74.5390 187° South 253 291 4,400  Level FlightAware ADS-B
Mon 11:38:47 AM 41.0540 -74.5400 181° South 253 291 4,400  Level FlightAware ADS-B
Mon 11:39:17 AM 41.0200 -74.5410 181° South 251 289 4,400  Level FlightAware ADS-B
Mon 11:39:42 AM 40.9870 -74.5410 180° South 252 290 4,400  Level FlightAware ADS-B
Mon 11:39:54 AM 40.9715 -74.5417 182° South 4,400  Level FlightAware ADS-B
Mon 11:39:57 AM 40.9680 -74.5419 182° South 250 288 4,400  Level FlightAware ADS-B
Mon 11:40:27 AM 40.9350 -74.5430 181° South 250 288 4,400  Level FlightAware ADS-B
Mon 11:40:52 AM 40.9070 -74.5440 182° South 253 291 4,400  Level FlightAware ADS-B
Mon 11:41:22 AM 40.8720 -74.5440 180° South 255 293 4,400  Level FlightAware ADS-B
Mon 11:41:47 AM 40.8420 -74.5450 181° South 254 292 4,400  Level FlightAware ADS-B
Mon 11:42:18 AM 40.8035 -74.5453 180° South 255 293 4,400  Level FlightAware ADS-B
Mon 11:43:12 AM 40.7420 -74.5470 181° South 254 292 4,400  Level FlightAware ADS-B
Mon 11:43:23 AM 40.7272 -74.5477 182° South 254 292 4,400  Level FlightAware ADS-B
Mon 11:44:07 AM 40.6770 -74.5500 182° South 259 298 4,400  Level FlightAware ADS-B
Mon 11:44:13 AM 40.6678 -74.5500 180° South 254 292 4,400  Level FlightAware ADS-B
Mon 11:44:34 AM 40.6422 -74.5517 183° South 256 295 4,400  Level FlightAware ADS-B
Mon 11:44:50 AM 40.6243 -74.5531 183° South 255 293 4,400 -375 Level FlightAware ADS-B
Mon 11:45:06 AM 40.6044 -74.5546 183° South 256 295 4,200 -563 Descending FlightAware ADS-B
Mon 11:45:22 AM 40.5862 -74.5560 183° South 252 290 4,100 -581 Descending FlightAware ADS-B
Mon 11:45:37 AM 40.5686 -74.5574 183° South 246 283 3,900 -581 Descending FlightAware ADS-B
Mon 11:45:53 AM 40.5510 -74.5587 183° South 240 276 3,800 -375 Descending FlightAware ADS-B
Mon 11:46:09 AM 40.5337 -74.5601 184° South 229 264 3,700 -462 Descending FlightAware ADS-B
Mon 11:46:19 AM 40.5234 -74.5603 181° South 219 252 3,600 -706 Descending FlightAware ADS-B
Mon 11:46:26 AM 40.5169 -74.5584 167° South 211 243 3,500 -500 Descending FlightAware ADS-B
Mon 11:46:31 AM 40.5124 -74.5562 160° South 202 232 3,500 -900 Level FlightAware ADS-B
Mon 11:46:46 AM 40.5001 -74.5483 154° Southeast 185 213 3,200 -727 Descending FlightAware ADS-B
Mon 11:47:04 AM 40.4870 -74.5394 153° Southeast 174 200 3,100 -545 Descending FlightAware ADS-B
Mon 11:47:19 AM 40.4767 -74.5323 152° Southeast 166 191 2,900 -514 Descending FlightAware ADS-B
Mon 11:47:39 AM 40.4632 -74.5229 152° Southeast 158 182 2,800 -462 Descending FlightAware ADS-B
Mon 11:47:45 AM 40.4601 -74.5198 143° Southeast 156 180 2,700 -1,091 Descending FlightAware ADS-B
Mon 11:47:50 AM 40.4573 -74.5158 133° Southeast 154 177 2,600 -545 Descending FlightAware ADS-B
Mon 11:47:56 AM 40.4551 -74.5117 125° Southeast 153 176 2,600 -480 Level FlightAware ADS-B
Mon 11:48:15 AM 40.4480 -74.4968 122° Southeast 151 174 2,400 -353 Descending FlightAware ADS-B
Mon 11:48:30 AM 40.4431 -74.4849 118° Southeast 154 177 2,400  Level FlightAware ADS-B
Mon 11:48:46 AM 40.4372 -74.4716 120° Southeast 156 180 2,400  Level FlightAware ADS-B
Mon 11:48:54 AM 40.4348 -74.4647 115° Southeast 156 180 2,400  Level FlightAware ADS-B
Mon 11:49:08 AM 40.4350 -74.4518 89° East 153 176 2,400  Level FlightAware ADS-B
Mon 11:49:51 AM 40.4537 -74.4194 53° Northeast 159 183 2,400  Level FlightAware ADS-B
Mon 11:50:16 AM 40.4652 -74.4013 50° Northeast 157 181 2,400  Level FlightAware ADS-B
Mon 11:50:52 AM 40.4800 -74.3760 52° Northeast 154 177 2,400  Level FlightAware ADS-B
Mon 11:51:02 AM 40.4853 -74.3677 50° Northeast 157 181 2,400  Level FlightAware ADS-B
Mon 11:51:33 AM 40.4995 -74.3436 52° Northeast 165 190 2,400  Level FlightAware ADS-B
Mon 11:52:08 AM 40.5164 -74.3157 51° Northeast 165 190 2,400  Level FlightAware ADS-B
Mon 11:52:36 AM 40.5349 -74.3007 32° Northeast 165 190 2,400  Level FlightAware ADS-B
Mon 11:52:53 AM 40.5476 -74.2925 26° Northeast 183 211 2,400  Level FlightAware ADS-B
Mon 11:53:15 AM 40.5651 -74.2815 26° Northeast 184 212 2,400 -94 Level FlightAware ADS-B
Mon 11:53:57 AM 40.5940 -74.2630 26° Northeast 165 190 2,300 -109 Descending FlightAware ADS-B
Mon 11:54:10 AM 40.6044 -74.2563 26° Northeast 166 191 2,300 -600 Level FlightAware ADS-B
Mon 11:54:47 AM 40.6291 -74.2401 26° Northeast 158 182 1,800 -952 Descending FlightAware ADS-B
Mon 11:55:13 AM 40.6475 -74.2284 26° Northeast 174 200 1,300 -1,015 Descending FlightAware ADS-B
Mon 11:55:52 AM 40.6730 -74.2120 26° Northeast 152 175 700 -977 Descending FlightAware ADS-B
Mon 11:55:56 AM 40.6767 -74.2099 23° Northeast 172 198 600 -923 Descending FlightAware ADS-B
Mon 11:56:05 AM 40.6826 -74.2058 28° Northeast 147 169 500 -600 Descending FlightAware ADS-B
Mon 11:56:16 AM 40.6889 -74.2012 29° Northeast 137 158 400 -774 Descending FlightAware ADS-B
Mon 11:56:36 AM 40.6999 -74.1943 25° Northeast 133 153 100 -900 Descending FlightAware ADS-B

Login

Don't have an account? Register now (free) for customized features, flight alerts, and more!